메인 페이지
METAR-TAF:

METAR-TAF

공항 :

실롱, 인도

위도: 25-42-13N, 경도: 091-58-43E, 고도: 887m

현재 날씨관측

예보는 14 시간 29분 전, 08:30시(UTC)에 발표되었습니다.
북서3kt
온도 24°C
습도 78%
기압 1009 hPa
시정: 2500m
고도 800ft 상공 구름 조금
고도 1800ft 상공 구름 보통
고도 2500ft 상공 구름 조금, 적란운.
고도 8000ft 상공 흐림
뇌우, 약한비

METAR: VEBI 280830Z 31003KT 2500 -TSRA FEW008 SCT018 FEW025CB OVC080 24/20 Q1009

시각: 04:29 (22:59 UTC)

예보

예보는 14 시간 59분 전, 08:00시(UTC)에 발표되었습니다.
예보 대상 시간: 28일 09시부터 28일 18시까지 (UTC)
5kt
시정: 5000m
고도 1800ft 상공 구름 보통
고도 2500ft 상공 구름 조금, 적란운.
고도 10000ft 상공 구름 많음
연무
일시적
28일 09시부터 28일 11시까지 (UTC)
6kt
시정: 3000m
고도 1000ft 상공 구름 조금
고도 1800ft 상공 구름 보통
고도 2500ft 상공 구름 조금, 적란운.
고도 9000ft 상공 구름 많음
뇌우, 약한비

TAF: VEBI 280800Z 2809/2818 10005KT 5000 HZ SCT018 FEW025CB BKN100 TEMPO 2809/2811 18006KT 3000 -TSRA FEW010 SCT018 FEW025CB BKN090

4,000개 이상의 공항 관측 자료 및 예보 (METAR 및 TAF 보고).

지도상에서 검색 가능한 기상관측소가 노란 점과 빨간 점으로 표시되어 있습니다.

기상관측소 명을 보려면 표시 위로 마우스를 이동하세요.

날씨 관측과 예보를 보려면 클릭하세요.

지도 변경 : 확대하려면 엑스 표시가 있는 녹색 버튼, 축소하려면 빼기 표시가 있는 녹색 버튼, 다음 페이지의 지도를 보려면 녹색 화살표를 클릭하세요.


METAR-TAF: